Aviation Digital Data Service (ADDS)

Output produced by METARs form (0014 UTC 26 September 2016)
found at http://www.aviationweather.gov/adds/metars/
 
KCRQ 252353Z AUTO 34004KT 10SM CLR 29/08 A2988 RMK AO2 SLP116 T02940078 10300 20267 56015
KCRQ 252253Z AUTO VRB04KT 10SM CLR 29/08 A2990 RMK AO2 SLP120 T02890083
KCRQ 252153Z AUTO 29006KT 10SM CLR 28/14 A2991 RMK AO2 SLP124 T02780144
KCRQ 252053Z AUTO 26008KT 10SM CLR 28/09 A2993 RMK AO2 SLP131 T02830089 56017
KCRQ 252324Z 2600/2624 28006KT P6SM SKC 
     FM260100 VRB04KT P6SM SKC 
     FM260600 08005KT P6SM SKC WS015/08018KT 
     FM261600 VRB05KT P6SM SKC 
     FM261900 27010KT P6SM SKC